KBMC

Brigham City Airport

Brigham City, Utah, USA
METAR KBMC 231110Z AUTO 00000KT 10SM OVC050 10/08 A3008 RMK AO1 T01030081
Observed Flight Rules
Oct-23 @ 11:10 UTC (40 minutes ago) Visual Flight Rules
Visibility Clouds
10 miles
  • Overcast at 5,000' AGL
Temperatures Readings
Current 10°C / 50°F
Dewpoint 8°C / 46°F
Humidity 88%
Altimeter 30.08" Hg
Pressure 1019 hPa
Elevation 1288
METAR KBMC 231110Z AUTO 00000KT 10SM OVC050 10/08 A3008 RMK AO1 T01030081
Observed Flight Rules
Oct-23 @ 11:10 UTC
(40 minutes ago)
VFR
Clouds
  • Overcast at 5,000' AGL
Temperature Dewpoint
10°C / 50°F 8°C / 46°F
Humidity Altimeter Pressure
88% 30.08" Hg 1019 hPa